Time,TemperatureF,DewpointF,PressureIn,WindDirection,WindDirectionDegrees,WindSpeedMPH,WindSpeedGustMPH,Humidity,HourlyPrecipIn,Conditions,Clouds,dailyrainin,SolarRadiationWatts/m^2,SoftwareType,DateUTC
2013-05-24 00:03:00,56.3,33.5,30.21,ENE,68,0.0,1.1,42,0.00,CLR,SCT,0.00,0.0,WeatherDisplay:10.37,2013-05-24 05:03:00,
2013-05-24 00:08:00,56.3,33.5,30.21,ENE,68,1.1,1.4,42,0.00,CLR,SCT,0.00,0.0,WeatherDisplay:10.37,2013-05-24 05:08:00,
2013-05-24 00:13:00,56.1,33.9,30.21,ENE,68,0.0,0.0,43,0.00,CLR,SCT,0.00,0.0,WeatherDisplay:10.37,2013-05-24 05:13:00,
2013-05-24 00:18:00,55.9,33.7,30.21,ENE,68,0.0,0.0,43,0.00,CLR,SCT,0.00,0.0,WeatherDisplay:10.37,2013-05-24 05:18:00,
2013-05-24 00:23:00,55.8,33.6,30.21,ENE,68,0.0,0.0,43,0.00,CLR,SCT,0.00,0.0,WeatherDisplay:10.37,2013-05-24 05:23:00,
2013-05-24 00:28:00,55.6,33.4,30.21,East,90,1.4,2.0,43,0.00,CLR,SCT,0.00,0.0,WeatherDisplay:10.37,2013-05-24 05:28:00,
2013-05-24 00:33:00,55.6,34.0,30.21,East,90,0.0,0.0,44,0.00,CLR,SCT,0.00,0.0,WeatherDisplay:10.37,2013-05-24 05:33:00,
2013-05-24 00:38:00,55.4,33.8,30.21,East,90,1.6,2.3,44,0.00,CLR,SCT,0.00,0.0,WeatherDisplay:10.37,2013-05-24 05:38:00,
2013-05-24 00:43:00,55.0,34.1,30.21,East,90,0.0,1.1,45,0.00,CLR,SCT,0.00,0.0,WeatherDisplay:10.37,2013-05-24 05:43:00,
2013-05-24 00:48:00,54.9,33.9,30.21,East,90,0.0,0.0,45,0.00,CLR,SCT,0.00,0.0,WeatherDisplay:10.37,2013-05-24 05:48:00,
2013-05-24 00:53:00,54.7,33.7,30.21,East,90,0.0,0.0,45,0.00,CLR,SCT,0.00,0.0,WeatherDisplay:10.37,2013-05-24 05:53:00,
2013-05-24 00:58:00,54.5,34.1,30.21,East,90,1.4,1.4,46,0.00,CLR,SCT,0.00,0.0,WeatherDisplay:10.37,2013-05-24 05:58:00,
2013-05-24 01:04:00,54.3,34.0,30.21,East,90,1.6,2.3,46,0.00,CLR,SCT,0.00,0.0,WeatherDisplay:10.37,2013-05-24 06:04:00,
2013-05-24 01:09:00,54.1,34.3,30.21,East,90,2.0,3.1,47,0.00,CLR,SCT,0.00,0.0,WeatherDisplay:10.37,2013-05-24 06:09:00,
2013-05-24 01:14:00,54.0,34.7,30.21,East,90,2.4,3.5,48,0.00,CLR,SCT,0.00,0.0,WeatherDisplay:10.37,2013-05-24 06:14:00,
2013-05-24 01:19:00,53.6,33.8,30.21,East,90,1.4,2.3,47,0.00,CLR,SCT,0.00,0.0,WeatherDisplay:10.37,2013-05-24 06:19:00,
2013-05-24 01:24:00,53.2,34.0,30.21,East,90,1.6,2.3,48,0.00,CLR,SCT,0.00,0.0,WeatherDisplay:10.37,2013-05-24 06:24:00,
2013-05-24 01:29:00,53.1,33.9,30.21,ENE,68,2.0,2.3,48,0.00,CLR,SCT,0.00,0.0,WeatherDisplay:10.37,2013-05-24 06:29:00,
2013-05-24 01:34:00,53.1,34.4,30.21,East,90,2.0,2.3,49,0.00,CLR,SCT,0.00,0.0,WeatherDisplay:10.37,2013-05-24 06:34:00,
2013-05-24 01:39:00,53.2,34.6,30.21,East,90,1.6,2.3,49,0.00,CLR,SCT,0.00,0.0,WeatherDisplay:10.37,2013-05-24 06:39:00,
2013-05-24 01:44:00,53.2,35.1,30.21,East,90,1.4,2.3,50,0.00,CLR,SCT,0.00,0.0,WeatherDisplay:10.37,2013-05-24 06:44:00,
2013-05-24 01:49:00,53.2,35.1,30.21,ENE,68,1.4,2.3,50,0.00,CLR,SCT,0.00,0.0,WeatherDisplay:10.37,2013-05-24 06:49:00,
2013-05-24 01:54:00,53.1,34.9,30.21,East,90,2.0,2.3,50,0.00,CLR,SCT,0.00,0.0,WeatherDisplay:10.37,2013-05-24 06:54:00,
2013-05-24 01:59:00,53.2,35.6,30.21,ESE,112,2.0,2.6,51,0.00,CLR,SCT,0.00,0.0,WeatherDisplay:10.37,2013-05-24 06:59:00,
2013-05-24 02:04:00,53.1,35.4,30.21,East,90,2.0,2.3,51,0.00,CLR,SCT,0.00,0.0,WeatherDisplay:10.37,2013-05-24 07:04:00,
2013-05-24 02:09:00,52.9,35.2,30.21,East,90,1.6,2.3,51,0.00,CLR,SCT,0.00,0.0,WeatherDisplay:10.37,2013-05-24 07:09:00,
2013-05-24 02:14:00,52.9,35.7,30.21,East,90,2.9,3.5,52,0.00,CLR,SCT,0.00,0.0,WeatherDisplay:10.37,2013-05-24 07:14:00,
2013-05-24 02:19:00,52.7,36.0,30.21,ESE,112,3.1,4.6,53,0.00,CLR,SCT,0.00,0.0,WeatherDisplay:10.37,2013-05-24 07:19:00,
2013-05-24 02:24:00,52.7,36.0,30.21,ESE,112,2.6,3.6,53,0.00,CLR,SCT,0.00,0.0,WeatherDisplay:10.37,2013-05-24 07:24:00,
2013-05-24 02:29:00,52.7,36.0,30.18,East,90,2.0,2.4,53,0.00,CLR,SCT,0.00,0.0,WeatherDisplay:10.37,2013-05-24 07:29:00,
2013-05-24 02:34:00,52.7,36.5,30.18,East,90,2.4,3.5,54,0.00,CLR,SCT,0.00,0.0,WeatherDisplay:10.37,2013-05-24 07:34:00,
2013-05-24 02:39:00,52.7,36.5,30.18,ESE,112,2.4,3.5,54,0.00,CLR,SCT,0.00,0.0,WeatherDisplay:10.37,2013-05-24 07:39:00,
2013-05-24 02:44:00,52.7,36.5,30.18,ESE,112,2.2,2.6,54,0.00,CLR,SCT,0.00,0.0,WeatherDisplay:10.37,2013-05-24 07:44:00,
2013-05-24 02:49:00,52.5,36.3,30.18,East,90,2.0,2.3,54,0.00,CLR,SCT,0.00,0.0,WeatherDisplay:10.37,2013-05-24 07:49:00,
2013-05-24 02:54:00,52.3,36.2,30.18,East,90,2.4,3.5,54,0.00,CLR,SCT,0.00,0.0,WeatherDisplay:10.37,2013-05-24 07:54:00,
2013-05-24 02:59:00,52.3,36.2,30.21,ESE,112,2.2,2.3,54,0.00,CLR,SCT,0.00,0.0,WeatherDisplay:10.37,2013-05-24 07:59:00,
2013-05-24 03:04:00,52.3,36.6,30.21,ESE,112,2.9,4.6,55,0.00,CLR,SCT,0.00,0.0,WeatherDisplay:10.37,2013-05-24 08:04:00,
2013-05-24 03:10:00,52.5,36.8,30.21,ENE,68,2.9,3.5,55,0.00,CLR,SCT,0.00,0.0,WeatherDisplay:10.37,2013-05-24 08:10:00,
2013-05-24 03:15:00,52.7,37.0,30.21,East,90,3.0,5.0,55,0.00,CLR,SCT,0.00,0.0,WeatherDisplay:10.37,2013-05-24 08:15:00,
2013-05-24 03:20:00,52.9,37.6,30.21,East,90,2.2,3.5,56,0.00,CLR,SCT,0.00,0.0,WeatherDisplay:10.37,2013-05-24 08:20:00,
2013-05-24 03:25:00,52.9,37.1,30.21,ESE,112,2.4,2.6,55,0.00,CLR,SCT,0.00,0.0,WeatherDisplay:10.37,2013-05-24 08:25:00,
2013-05-24 03:30:00,52.9,37.1,30.21,ESE,112,2.2,3.5,55,0.00,CLR,SCT,0.00,0.0,WeatherDisplay:10.37,2013-05-24 08:30:00,
2013-05-24 03:35:00,52.9,37.1,30.21,ESE,112,3.8,5.8,55,0.00,CLR,SCT,0.00,0.0,WeatherDisplay:10.37,2013-05-24 08:35:00,
2013-05-24 03:40:00,53.1,37.3,30.21,ESE,112,2.4,4.6,55,0.00,CLR,SCT,0.00,0.0,WeatherDisplay:10.37,2013-05-24 08:40:00,
2013-05-24 03:45:00,53.1,37.3,30.21,ENE,68,3.8,4.6,55,0.00,CLR,SCT,0.00,0.0,WeatherDisplay:10.37,2013-05-24 08:45:00,
2013-05-24 03:50:00,52.9,37.1,30.21,ESE,112,3.1,4.6,55,0.00,CLR,SCT,0.00,0.0,WeatherDisplay:10.37,2013-05-24 08:50:00,
2013-05-24 03:55:00,52.9,37.1,30.21,ESE,112,2.9,4.6,55,0.00,CLR,SCT,0.00,0.0,WeatherDisplay:10.37,2013-05-24 08:55:00,
2013-05-24 04:00:00,52.7,36.5,30.21,East,90,3.1,4.6,54,0.00,CLR,SCT,0.00,0.0,WeatherDisplay:10.37,2013-05-24 09:00:00,
2013-05-24 04:05:00,52.5,36.8,30.21,East,90,3.6,5.8,55,0.00,CLR,SCT,0.00,0.0,WeatherDisplay:10.37,2013-05-24 09:05:00,
2013-05-24 04:11:00,52.5,36.8,30.21,ESE,112,3.1,4.6,55,0.00,CLR,SCT,0.00,0.0,WeatherDisplay:10.37,2013-05-24 09:11:00,
2013-05-24 04:16:00,52.3,36.6,30.21,ESE,112,3.8,4.6,55,0.00,CLR,SCT,0.00,0.0,WeatherDisplay:10.37,2013-05-24 09:16:00,
2013-05-24 04:21:00,52.3,36.6,30.21,NNE,22,3.3,5.8,55,0.00,CLR,SCT,0.00,0.0,WeatherDisplay:10.37,2013-05-24 09:21:00,
2013-05-24 04:26:00,52.3,36.6,30.21,ESE,112,3.8,4.6,55,0.00,CLR,SCT,0.00,0.0,WeatherDisplay:10.37,2013-05-24 09:26:00,
2013-05-24 04:31:00,52.3,37.1,30.21,ENE,68,4.3,5.8,56,0.00,CLR,SCT,0.00,0.0,WeatherDisplay:10.37,2013-05-24 09:31:00,
2013-05-24 04:36:00,52.3,36.6,30.21,ESE,112,4.0,5.8,55,0.00,CLR,SCT,0.00,0.0,WeatherDisplay:10.37,2013-05-24 09:36:00,
2013-05-24 04:41:00,52.3,37.1,30.21,East,90,3.6,5.8,56,0.00,CLR,SCT,0.00,0.0,WeatherDisplay:10.37,2013-05-24 09:41:00,
2013-05-24 04:46:00,52.3,36.6,30.21,ESE,112,2.9,4.7,55,0.00,CLR,SCT,0.00,0.0,WeatherDisplay:10.37,2013-05-24 09:46:00,
2013-05-24 04:51:00,52.3,36.6,30.21,East,90,3.6,4.6,55,0.00,CLR,SCT,0.00,0.0,WeatherDisplay:10.37,2013-05-24 09:51:00,
2013-05-24 04:56:00,52.3,37.1,30.21,ESE,112,3.6,5.8,56,0.00,CLR,SCT,0.00,0.0,WeatherDisplay:10.37,2013-05-24 09:56:00,
2013-05-24 05:01:00,52.2,36.9,30.24,ESE,112,3.1,4.6,56,0.00,CLR,SCT,0.00,0.0,WeatherDisplay:10.37,2013-05-24 10:01:00,
2013-05-24 05:06:00,52.0,36.3,30.24,East,90,3.1,5.8,55,0.00,CLR,SCT,0.00,0.0,WeatherDisplay:10.37,2013-05-24 10:06:00,
2013-05-24 05:11:00,51.8,36.6,30.24,ESE,112,2.6,4.6,56,0.00,CLR,SCT,0.00,0.0,WeatherDisplay:10.37,2013-05-24 10:11:00,
2013-05-24 05:16:00,51.6,36.4,30.21,ESE,112,2.2,4.0,56,0.00,CLR,SCT,0.00,0.0,WeatherDisplay:10.37,2013-05-24 10:16:00,
2013-05-24 05:21:00,51.4,36.3,30.21,SE,135,2.6,3.6,56,0.00,CLR,SCT,0.00,0.0,WeatherDisplay:10.37,2013-05-24 10:21:00,
2013-05-24 05:26:00,51.3,36.5,30.21,ENE,68,2.4,4.6,57,0.00,CLR,SCT,0.00,0.0,WeatherDisplay:10.37,2013-05-24 10:26:00,
2013-05-24 05:31:00,51.3,36.5,30.24,ENE,68,3.6,4.6,57,0.00,CLR,SCT,0.00,0.0,WeatherDisplay:10.37,2013-05-24 10:31:00,
2013-05-24 05:36:00,51.3,36.5,30.24,East,90,3.1,3.8,57,0.00,CLR,SCT,0.00,0.0,WeatherDisplay:10.37,2013-05-24 10:36:00,
2013-05-24 05:42:00,51.1,36.8,30.24,East,90,2.6,4.6,58,0.00,CLR,SCT,0.00,570.0,WeatherDisplay:10.37,2013-05-24 10:42:00,
2013-05-24 05:47:00,51.1,36.8,30.24,ESE,112,3.8,5.8,58,0.00,CLR,SCT,0.00,0.0,WeatherDisplay:10.37,2013-05-24 10:47:00,
2013-05-24 05:52:00,51.1,36.8,30.24,ESE,112,2.2,3.5,58,0.00,CLR,SCT,0.00,0.0,WeatherDisplay:10.37,2013-05-24 10:52:00,
2013-05-24 05:57:00,50.9,36.6,30.24,East,90,2.0,3.5,58,0.00,CLR,SCT,0.00,0.0,WeatherDisplay:10.37,2013-05-24 10:57:00,
2013-05-24 06:02:00,50.7,37.3,30.24,ESE,112,2.4,4.6,60,0.00,CLR,SCT,0.00,0.0,WeatherDisplay:10.37,2013-05-24 11:02:00,
2013-05-24 06:07:00,50.5,37.2,30.24,ENE,68,2.6,3.5,60,0.00,CLR,SCT,0.00,0.0,WeatherDisplay:10.37,2013-05-24 11:07:00,
2013-05-24 06:12:00,50.4,37.0,30.24,East,90,3.1,5.9,60,0.00,CLR,SCT,0.00,0.0,WeatherDisplay:10.37,2013-05-24 11:12:00,
2013-05-24 06:17:00,50.4,37.4,30.24,ESE,112,3.1,3.5,61,0.00,CLR,SCT,0.00,436.0,WeatherDisplay:10.37,2013-05-24 11:17:00,
2013-05-24 06:22:00,50.4,37.4,30.24,ESE,112,2.4,3.5,61,0.00,CLR,SCT,0.00,0.0,WeatherDisplay:10.37,2013-05-24 11:22:00,
2013-05-24 06:27:00,50.4,37.8,30.21,ESE,112,3.1,4.6,62,0.00,CLR,SCT,0.00,0.0,WeatherDisplay:10.37,2013-05-24 11:27:00,
2013-05-24 06:32:00,50.5,38.4,30.21,East,90,3.1,4.6,63,0.00,CLR,SCT,0.00,0.0,WeatherDisplay:10.37,2013-05-24 11:32:00,
2013-05-24 06:37:00,50.7,39.0,30.21,ESE,112,4.5,6.9,64,0.00,CLR,SCT,0.00,362.0,WeatherDisplay:10.37,2013-05-24 11:37:00,
2013-05-24 06:42:00,50.9,39.1,30.24,SE,135,3.3,3.5,64,0.00,CLR,SCT,0.00,0.0,WeatherDisplay:10.37,2013-05-24 11:42:00,
2013-05-24 06:47:00,51.1,39.3,30.24,SSE,158,3.3,4.6,64,0.00,CLR,SCT,0.00,327.0,WeatherDisplay:10.37,2013-05-24 11:47:00,
2013-05-24 06:52:00,51.3,39.5,30.24,ENE,68,3.8,4.6,64,0.00,CLR,SCT,0.00,0.0,WeatherDisplay:10.37,2013-05-24 11:52:00,
2013-05-24 06:57:00,51.4,39.3,30.21,ESE,112,3.1,5.8,63,0.00,CLR,SCT,0.00,0.0,WeatherDisplay:10.37,2013-05-24 11:57:00,
2013-05-24 07:02:00,51.6,39.8,30.21,ESE,112,3.1,3.6,64,0.00,CLR,SCT,0.00,0.0,WeatherDisplay:10.37,2013-05-24 12:02:00,
2013-05-24 07:07:00,52.0,40.2,30.21,East,90,2.9,4.6,64,0.00,CLR,SCT,0.00,0.0,WeatherDisplay:10.37,2013-05-24 12:07:00,
2013-05-24 07:12:00,52.3,40.5,30.24,ESE,112,3.8,5.8,64,0.00,CLR,SCT,0.00,0.0,WeatherDisplay:10.37,2013-05-24 12:12:00,
2013-05-24 07:17:00,52.9,41.0,30.24,SSE,158,3.8,4.9,64,0.00,CLR,SCT,0.00,0.0,WeatherDisplay:10.37,2013-05-24 12:17:00,
2013-05-24 07:22:00,53.4,41.1,30.24,ENE,68,6.0,8.1,63,0.00,CLR,SCT,0.00,0.0,WeatherDisplay:10.37,2013-05-24 12:22:00,
2013-05-24 07:27:00,53.6,40.5,30.24,SSW,202,4.5,5.8,61,0.00,CLR,SCT,0.00,0.0,WeatherDisplay:10.37,2013-05-24 12:27:00,
2013-05-24 07:32:00,54.0,40.4,30.24,ENE,68,4.3,5.8,60,0.00,CLR,SCT,0.00,0.0,WeatherDisplay:10.37,2013-05-24 12:32:00,
2013-05-24 07:37:00,54.1,40.1,30.24,ESE,112,3.8,5.9,59,0.00,CLR,SCT,0.00,0.0,WeatherDisplay:10.37,2013-05-24 12:37:00,
2013-05-24 07:42:00,54.1,40.1,30.24,ESE,112,3.8,4.9,59,0.00,CLR,SCT,0.00,0.0,WeatherDisplay:10.37,2013-05-24 12:42:00,
2013-05-24 07:47:00,54.3,39.8,30.24,ESE,112,3.3,5.8,58,0.00,CLR,SCT,0.00,0.0,WeatherDisplay:10.37,2013-05-24 12:47:00,
2013-05-24 07:52:00,54.3,40.3,30.24,SSE,158,3.1,6.4,59,0.00,CLR,SCT,0.00,0.0,WeatherDisplay:10.37,2013-05-24 12:52:00,
2013-05-24 07:57:00,54.5,40.5,30.24,ESE,112,3.8,5.6,59,0.00,CLR,SCT,0.00,0.0,WeatherDisplay:10.37,2013-05-24 12:57:00,
2013-05-24 08:02:00,54.5,40.5,30.24,SE,135,4.0,4.6,59,0.00,CLR,SCT,0.00,0.0,WeatherDisplay:10.37,2013-05-24 13:02:00,
2013-05-24 08:07:00,54.7,40.6,30.24,ESE,112,3.1,3.5,59,0.00,CLR,SCT,0.00,0.0,WeatherDisplay:10.37,2013-05-24 13:07:00,
2013-05-24 08:12:00,54.9,41.2,30.24,East,90,3.6,4.9,60,0.00,CLR,SCT,0.00,0.0,WeatherDisplay:10.37,2013-05-24 13:12:00,
2013-05-24 08:17:00,55.0,41.4,30.24,ESE,112,2.4,4.6,60,0.00,CLR,SCT,0.00,0.0,WeatherDisplay:10.37,2013-05-24 13:17:00,
2013-05-24 08:22:00,55.4,41.7,30.24,SSE,158,3.3,4.6,60,0.00,CLR,SCT,0.00,0.0,WeatherDisplay:10.37,2013-05-24 13:22:00,
2013-05-24 08:27:00,55.6,41.9,30.24,ESE,112,3.6,5.8,60,0.00,CLR,SCT,0.00,0.0,WeatherDisplay:10.37,2013-05-24 13:27:00,
2013-05-24 08:32:00,55.9,42.2,30.24,ESE,112,2.6,4.6,60,0.00,CLR,SCT,0.00,0.0,WeatherDisplay:10.37,2013-05-24 13:32:00,
2013-05-24 08:37:00,56.3,42.6,30.24,ESE,112,4.0,6.2,60,0.00,CLR,SCT,0.00,0.0,WeatherDisplay:10.37,2013-05-24 13:37:00,
2013-05-24 08:42:00,56.8,43.1,30.21,ESE,112,3.6,6.4,60,0.00,CLR,SCT,0.00,0.0,WeatherDisplay:10.37,2013-05-24 13:42:00,
2013-05-24 08:47:00,57.4,43.6,30.21,SSW,202,2.2,4.0,60,0.00,SCT,,0.00,0.0,WeatherDisplay:10.37,2013-05-24 13:47:00,
2013-05-24 08:52:00,58.1,44.3,30.21,ESE,112,4.0,6.9,60,0.00,BKN,SCT,0.00,0.0,WeatherDisplay:10.37,2013-05-24 13:52:00,
2013-05-24 08:57:00,58.5,44.2,30.24,SE,135,5.6,6.9,59,0.00,OVC,SCT,0.00,0.0,WeatherDisplay:10.37,2013-05-24 13:57:00,
2013-05-24 09:02:00,59.0,43.8,30.24,SSE,158,4.3,5.8,57,0.00,OVC,SCT,0.00,100.0,WeatherDisplay:10.37,2013-05-24 14:02:00,
2013-05-24 09:07:00,59.7,44.0,30.24,ESE,112,4.9,5.8,56,0.00,OVC,SCT,0.00,0.0,WeatherDisplay:10.37,2013-05-24 14:07:00,
2013-05-24 09:12:00,60.3,44.0,30.24,ESE,112,5.9,6.9,55,0.00,OVC,SCT,0.00,100.0,WeatherDisplay:10.37,2013-05-24 14:12:00,
2013-05-24 09:17:00,60.8,43.6,30.24,South,180,3.8,4.6,53,0.00,OVC,SCT,0.00,100.0,WeatherDisplay:10.37,2013-05-24 14:17:00,
2013-05-24 09:23:00,61.5,44.2,30.24,ENE,68,3.3,5.8,53,0.00,OVC,SCT,0.00,100.0,WeatherDisplay:10.37,2013-05-24 14:23:00,
2013-05-24 09:28:00,61.7,42.9,30.24,ENE,68,6.0,6.9,50,0.00,OVC,SCT,0.00,100.0,WeatherDisplay:10.37,2013-05-24 14:28:00,
2013-05-24 09:33:00,62.1,43.2,30.24,South,180,4.9,10.4,50,0.00,OVC,SCT,0.00,100.0,WeatherDisplay:10.37,2013-05-24 14:33:00,
2013-05-24 09:38:00,62.6,43.2,30.24,ESE,112,6.0,8.1,49,0.00,OVC,SCT,0.00,100.0,WeatherDisplay:10.37,2013-05-24 14:38:00,
2013-05-24 09:43:00,63.0,43.0,30.24,SSE,158,5.6,11.5,48,0.00,OVC,SCT,0.00,100.0,WeatherDisplay:10.37,2013-05-24 14:43:00,
2013-05-24 09:48:00,63.9,45.4,30.24,NE,45,4.7,8.1,51,0.00,OVC,SCT,0.00,100.0,WeatherDisplay:10.37,2013-05-24 14:48:00,
2013-05-24 09:53:00,63.7,41.9,30.24,WNW,292,8.7,8.7,45,0.00,OVC,SCT,0.00,100.0,WeatherDisplay:10.37,2013-05-24 14:53:00,
2013-05-24 09:58:00,64.2,42.4,30.24,SSE,158,7.4,10.4,45,0.00,OVC,SCT,0.00,100.0,WeatherDisplay:10.37,2013-05-24 14:58:00,
2013-05-24 10:03:00,64.2,42.4,30.24,ENE,68,8.1,10.0,45,0.00,OVC,SCT,0.00,100.0,WeatherDisplay:10.37,2013-05-24 15:03:00,
2013-05-24 10:08:00,64.4,40.8,30.24,East,90,6.7,12.7,42,0.00,OVC,SCT,0.00,200.0,WeatherDisplay:10.37,2013-05-24 15:08:00,
2013-05-24 10:13:00,64.6,41.6,30.24,ENE,68,6.7,8.1,43,0.00,OVC,SCT,0.00,200.0,WeatherDisplay:10.37,2013-05-24 15:13:00,
2013-05-24 10:18:00,64.8,40.5,30.24,ESE,112,9.4,12.7,41,0.00,OVC,SCT,0.00,200.0,WeatherDisplay:10.37,2013-05-24 15:18:00,
2013-05-24 10:23:00,64.8,40.5,30.24,SSE,158,7.1,13.8,41,0.00,OVC,SCT,0.00,200.0,WeatherDisplay:10.37,2013-05-24 15:23:00,
2013-05-24 10:28:00,64.8,40.5,30.24,ESE,112,8.1,9.8,41,0.00,OVC,SCT,0.00,100.0,WeatherDisplay:10.37,2013-05-24 15:28:00,
2013-05-24 10:33:00,64.4,40.8,30.24,SSW,202,7.4,13.7,42,0.00,OVC,SCT,0.00,200.0,WeatherDisplay:10.37,2013-05-24 15:33:00,
2013-05-24 10:38:00,64.8,41.7,30.24,SSE,158,7.4,9.2,43,0.00,OVC,SCT,0.00,200.0,WeatherDisplay:10.37,2013-05-24 15:38:00,
2013-05-24 10:44:00,65.3,41.0,30.21,ESE,112,8.1,15.0,41,0.00,OVC,SCT,0.00,200.0,WeatherDisplay:10.37,2013-05-24 15:44:00,
2013-05-24 10:49:00,65.5,41.1,30.21,SSW,202,6.4,11.5,41,0.00,OVC,SCT,0.00,200.0,WeatherDisplay:10.37,2013-05-24 15:49:00,
2013-05-24 10:54:00,65.7,40.7,30.21,ESE,112,7.1,10.4,40,0.00,OVC,SCT,0.00,200.0,WeatherDisplay:10.37,2013-05-24 15:54:00,
2013-05-24 10:59:00,66.0,41.0,30.21,SSE,158,9.8,10.4,40,0.00,OVC,SCT,0.00,300.0,WeatherDisplay:10.37,2013-05-24 15:59:00,
2013-05-24 11:04:00,66.0,41.0,30.21,SSE,158,8.1,17.3,40,0.00,OVC,SCT,0.00,300.0,WeatherDisplay:10.37,2013-05-24 16:04:00,
2013-05-24 11:09:00,66.4,41.3,30.21,East,90,9.0,11.5,40,0.00,OVC,SCT,0.00,300.0,WeatherDisplay:10.37,2013-05-24 16:09:00,
2013-05-24 11:14:00,66.2,40.5,30.18,SSE,158,7.6,8.1,39,0.00,OVC,SCT,0.00,200.0,WeatherDisplay:10.37,2013-05-24 16:14:00,
2013-05-24 11:20:00,65.7,39.3,30.18,SW,225,9.4,12.7,38,0.00,OVC,SCT,0.00,200.0,WeatherDisplay:10.37,2013-05-24 16:20:00,
2013-05-24 11:25:00,65.7,40.7,30.18,ESE,112,6.4,10.4,40,0.00,OVC,SCT,0.00,100.0,WeatherDisplay:10.37,2013-05-24 16:25:00,
2013-05-24 11:30:00,66.0,42.3,30.21,ENE,68,6.7,9.2,42,0.00,OVC,SCT,0.00,300.0,WeatherDisplay:10.37,2013-05-24 16:30:00,
2013-05-24 11:35:00,66.6,42.1,30.21,SSE,158,7.1,10.7,41,0.00,OVC,SCT,0.00,400.0,WeatherDisplay:10.37,2013-05-24 16:35:00,
2013-05-24 11:40:00,66.6,40.8,30.21,East,90,8.1,13.8,39,0.00,OVC,SCT,0.00,300.0,WeatherDisplay:10.37,2013-05-24 16:40:00,
2013-05-24 11:45:00,66.6,41.5,30.21,ESE,112,5.9,8.1,40,0.00,OVC,SCT,0.00,300.0,WeatherDisplay:10.37,2013-05-24 16:45:00,
2013-05-24 11:50:00,66.7,41.6,30.21,SSE,158,6.4,8.1,40,0.00,OVC,SCT,0.00,400.0,WeatherDisplay:10.37,2013-05-24 16:50:00,
2013-05-24 11:55:00,67.1,42.0,30.21,ESE,112,7.4,10.4,40,0.00,OVC,SCT,0.00,200.0,WeatherDisplay:10.37,2013-05-24 16:55:00,
2013-05-24 12:00:00,67.1,42.0,30.21,ESE,112,7.4,8.5,40,0.00,OVC,SCT,0.00,100.0,WeatherDisplay:10.37,2013-05-24 17:00:00,
2013-05-24 12:05:00,66.9,41.1,30.21,SE,135,7.1,9.2,39,0.00,OVC,SCT,0.00,100.0,WeatherDisplay:10.37,2013-05-24 17:05:00,
2013-05-24 12:10:00,66.7,41.0,30.21,SSE,158,6.2,10.5,39,0.00,OVC,SCT,0.00,100.0,WeatherDisplay:10.37,2013-05-24 17:10:00,
2013-05-24 12:15:00,66.9,43.1,30.21,South,180,6.4,11.5,42,0.00,OVC,SCT,0.00,300.0,WeatherDisplay:10.37,2013-05-24 17:15:00,
2013-05-24 12:20:00,67.5,42.3,30.21,WSW,248,10.7,12.7,40,0.00,OVC,SCT,0.00,400.0,WeatherDisplay:10.37,2013-05-24 17:20:00,
2013-05-24 12:25:00,68.2,42.9,30.21,SSE,158,7.4,10.4,40,0.00,OVC,SCT,0.00,400.0,WeatherDisplay:10.37,2013-05-24 17:25:00,
2013-05-24 12:30:00,68.4,42.4,30.21,SSW,202,9.7,13.8,39,0.00,OVC,SCT,0.00,400.0,WeatherDisplay:10.37,2013-05-24 17:30:00,
2013-05-24 12:36:00,68.7,44.1,30.21,ESE,112,6.0,10.4,41,0.00,OVC,SCT,0.00,400.0,WeatherDisplay:10.37,2013-05-24 17:36:00,
2013-05-24 12:41:00,69.1,45.0,30.21,SSW,202,5.4,10.5,42,0.00,OVC,SCT,0.00,400.0,WeatherDisplay:10.37,2013-05-24 17:41:00,
2013-05-24 12:46:00,69.3,41.9,30.21,ESE,112,8.5,11.5,37,0.00,OVC,SCT,0.00,300.0,WeatherDisplay:10.37,2013-05-24 17:46:00,
2013-05-24 12:51:00,69.1,41.0,30.21,South,180,7.1,10.5,36,0.00,OVC,SCT,0.00,200.0,WeatherDisplay:10.37,2013-05-24 17:51:00,
2013-05-24 12:56:00,69.1,42.4,30.21,SSE,158,7.6,13.8,38,0.00,OVC,SCT,0.00,400.0,WeatherDisplay:10.37,2013-05-24 17:56:00,
2013-05-24 13:01:00,69.4,42.0,30.21,SSW,202,9.8,12.7,37,0.00,OVC,SCT,0.00,400.0,WeatherDisplay:10.37,2013-05-24 18:01:00,
2013-05-24 13:06:00,70.0,44.5,30.21,West,270,6.4,10.4,40,0.00,OVC,SCT,0.00,400.0,WeatherDisplay:10.37,2013-05-24 18:06:00,
2013-05-24 13:11:00,70.3,42.8,30.21,SE,135,6.2,9.2,37,0.00,OVC,SCT,0.00,300.0,WeatherDisplay:10.37,2013-05-24 18:11:00,
2013-05-24 13:16:00,70.3,41.4,30.18,East,90,7.4,15.0,35,0.00,OVC,SCT,0.00,400.0,WeatherDisplay:10.37,2013-05-24 18:16:00,
2013-05-24 13:21:00,70.2,40.5,30.18,SSE,158,6.0,10.9,34,0.00,OVC,SCT,0.00,200.0,WeatherDisplay:10.37,2013-05-24 18:21:00,
2013-05-24 13:26:00,70.0,39.5,30.18,South,180,9.8,12.7,33,0.00,OVC,SCT,0.00,200.0,WeatherDisplay:10.37,2013-05-24 18:26:00,
2013-05-24 13:31:00,70.0,40.3,30.18,SE,135,9.2,11.5,34,0.00,OVC,SCT,0.00,200.0,WeatherDisplay:10.37,2013-05-24 18:31:00,
2013-05-24 13:36:00,70.2,41.2,30.18,East,90,7.8,11.5,35,0.00,OVC,SCT,0.00,100.0,WeatherDisplay:10.37,2013-05-24 18:36:00,
2013-05-24 13:42:00,70.0,39.5,30.18,South,180,9.7,10.4,33,0.00,OVC,SCT,0.00,200.0,WeatherDisplay:10.37,2013-05-24 18:42:00,
2013-05-24 13:47:00,70.0,39.5,30.18,SSW,202,9.7,12.3,33,0.00,OVC,SCT,0.00,100.0,WeatherDisplay:10.37,2013-05-24 18:47:00,
2013-05-24 13:52:00,70.2,39.7,30.18,SSW,202,9.7,16.1,33,0.00,OVC,SCT,0.00,100.0,WeatherDisplay:10.37,2013-05-24 18:52:00,
2013-05-24 13:57:00,70.2,39.7,30.15,SSW,202,9.2,11.5,33,0.00,OVC,SCT,0.00,100.0,WeatherDisplay:10.37,2013-05-24 18:57:00,
2013-05-24 14:02:00,70.0,39.5,30.15,SW,225,8.7,12.7,33,0.00,OVC,SCT,0.00,100.0,WeatherDisplay:10.37,2013-05-24 19:02:00,
2013-05-24 14:07:00,69.4,39.8,30.15,West,270,7.4,8.1,34,0.00,OVC,SCT,0.00,100.0,WeatherDisplay:10.37,2013-05-24 19:07:00,
2013-05-24 14:12:00,69.4,40.6,30.18,SSE,158,4.9,9.2,35,0.00,OVC,SCT,0.00,100.0,WeatherDisplay:10.37,2013-05-24 19:12:00,
2013-05-24 14:17:00,69.6,40.7,30.18,ESE,112,6.2,8.1,35,0.00,OVC,SCT,0.00,100.0,WeatherDisplay:10.37,2013-05-24 19:17:00,
2013-05-24 14:22:00,69.6,39.2,30.18,ESE,112,6.9,13.8,33,0.00,OVC,SCT,0.00,100.0,WeatherDisplay:10.37,2013-05-24 19:22:00,
2013-05-24 14:27:00,69.6,39.2,30.18,SSE,158,9.4,11.5,33,0.00,OVC,SCT,0.00,100.0,WeatherDisplay:10.37,2013-05-24 19:27:00,
2013-05-24 14:32:00,69.8,39.4,30.18,West,270,4.9,7.1,33,0.00,OVC,SCT,0.00,100.0,WeatherDisplay:10.37,2013-05-24 19:32:00,
2013-05-24 14:37:00,69.8,39.4,30.18,South,180,6.7,9.2,33,0.00,OVC,SCT,0.00,0.0,WeatherDisplay:10.37,2013-05-24 19:37:00,
2013-05-24 14:42:00,69.6,39.2,30.18,SSE,158,5.9,8.5,33,0.00,OVC,SCT,0.00,0.0,WeatherDisplay:10.37,2013-05-24 19:42:00,
2013-05-24 14:47:00,69.6,39.2,30.18,SSE,158,4.0,8.1,33,0.00,OVC,SCT,0.00,0.0,WeatherDisplay:10.37,2013-05-24 19:47:00,
2013-05-24 14:53:00,69.4,39.1,30.18,SSW,202,6.0,8.1,33,0.00,OVC,SCT,0.00,0.0,WeatherDisplay:10.37,2013-05-24 19:53:00,
2013-05-24 14:58:00,69.6,39.2,30.15,SSW,202,5.6,9.2,33,0.00,OVC,SCT,0.00,0.0,WeatherDisplay:10.37,2013-05-24 19:58:00,
2013-05-24 15:03:00,69.6,39.2,30.15,ESE,112,4.7,10.4,33,0.00,OVC,SCT,0.00,0.0,WeatherDisplay:10.37,2013-05-24 20:03:00,
2013-05-24 15:08:00,69.6,38.4,30.15,South,180,7.8,9.2,32,0.00,OVC,SCT,0.00,0.0,WeatherDisplay:10.37,2013-05-24 20:08:00,
2013-05-24 15:13:00,69.8,38.6,30.12,ESE,112,6.4,8.1,32,0.00,OVC,SCT,0.00,100.0,WeatherDisplay:10.37,2013-05-24 20:13:00,
2013-05-24 15:18:00,70.2,39.7,30.12,SSE,158,6.9,10.4,33,0.00,OVC,SCT,0.00,100.0,WeatherDisplay:10.37,2013-05-24 20:18:00,
2013-05-24 15:23:00,70.5,39.2,30.12,ESE,112,4.9,8.1,32,0.00,OVC,SCT,0.00,100.0,WeatherDisplay:10.37,2013-05-24 20:23:00,
2013-05-24 15:29:00,70.5,39.2,30.12,ESE,112,6.7,8.1,32,0.00,OVC,SCT,0.00,200.0,WeatherDisplay:10.37,2013-05-24 20:29:00,
2013-05-24 15:34:00,70.9,39.5,30.12,South,180,6.4,7.1,32,0.00,OVC,SCT,0.00,100.0,WeatherDisplay:10.37,2013-05-24 20:34:00,
2013-05-24 15:39:00,71.4,40.8,30.12,SSE,158,7.6,12.7,33,0.00,OVC,SCT,0.00,200.0,WeatherDisplay:10.37,2013-05-24 20:39:00,
2013-05-24 15:44:00,71.4,40.0,30.12,SSE,158,9.7,13.8,32,0.00,OVC,SCT,0.00,300.0,WeatherDisplay:10.37,2013-05-24 20:44:00,
2013-05-24 15:49:00,71.4,40.0,30.12,ESE,112,7.8,10.4,32,0.00,OVC,SCT,0.00,200.0,WeatherDisplay:10.37,2013-05-24 20:49:00,
2013-05-24 15:54:00,71.8,40.3,30.12,East,90,4.0,5.8,32,0.00,OVC,SCT,0.00,200.0,WeatherDisplay:10.37,2013-05-24 20:54:00,
2013-05-24 15:59:00,72.3,40.8,30.12,South,180,6.7,12.7,32,0.00,OVC,SCT,0.00,200.0,WeatherDisplay:10.37,2013-05-24 20:59:00,
2013-05-24 16:04:00,72.1,39.8,30.12,South,180,7.6,9.2,31,0.00,OVC,SCT,0.00,100.0,WeatherDisplay:10.37,2013-05-24 21:04:00,
2013-05-24 16:09:00,72.3,40.0,30.12,SSW,202,7.6,13.8,31,0.00,OVC,SCT,0.00,200.0,WeatherDisplay:10.37,2013-05-24 21:09:00,
2013-05-24 16:14:00,72.7,40.3,30.09,SSE,158,8.5,13.8,31,0.00,OVC,SCT,0.00,200.0,WeatherDisplay:10.37,2013-05-24 21:14:00,
2013-05-24 16:19:00,72.9,40.4,30.09,South,180,8.5,11.5,31,0.00,OVC,SCT,0.00,100.0,WeatherDisplay:10.37,2013-05-24 21:19:00,
2013-05-24 16:24:00,72.9,39.6,30.09,SSW,202,8.5,15.0,30,0.00,OVC,SCT,0.00,100.0,WeatherDisplay:10.37,2013-05-24 21:24:00,
2013-05-24 16:29:00,72.7,39.4,30.09,ESE,112,8.7,11.5,30,0.00,OVC,SCT,0.00,0.0,WeatherDisplay:10.37,2013-05-24 21:29:00,
2013-05-24 16:34:00,72.1,39.0,30.09,SSE,158,8.5,9.2,30,0.00,OVC,SCT,0.00,0.0,WeatherDisplay:10.37,2013-05-24 21:34:00,
2013-05-24 16:39:00,71.8,37.8,30.09,South,180,9.0,11.5,29,0.00,OVC,SCT,0.00,0.0,WeatherDisplay:10.37,2013-05-24 21:39:00,
2013-05-24 16:44:00,71.6,39.3,30.06,ESE,112,7.4,10.4,31,0.00,OVC,SCT,0.00,0.0,WeatherDisplay:10.37,2013-05-24 21:44:00,
2013-05-24 16:49:00,71.8,40.3,30.06,NNE,22,9.8,12.7,32,0.00,OVC,SCT,0.00,100.0,WeatherDisplay:10.37,2013-05-24 21:49:00,
2013-05-24 16:55:00,72.1,40.6,30.06,SSE,158,7.8,11.5,32,0.00,OVC,SCT,0.00,100.0,WeatherDisplay:10.37,2013-05-24 21:55:00,
2013-05-24 17:00:00,72.5,41.0,30.03,SSW,202,7.6,11.5,32,0.00,OVC,SCT,0.00,100.0,WeatherDisplay:10.37,2013-05-24 22:00:00,
2013-05-24 17:05:00,72.7,40.3,30.03,SSW,202,7.4,10.5,31,0.00,OVC,SCT,0.00,100.0,WeatherDisplay:10.37,2013-05-24 22:05:00,
2013-05-24 17:10:00,73.0,40.6,30.03,South,180,6.2,10.4,31,0.00,OVC,SCT,0.00,100.0,WeatherDisplay:10.37,2013-05-24 22:10:00,
2013-05-24 17:15:00,73.4,40.9,30.06,SSE,158,6.9,9.2,31,0.00,OVC,SCT,0.00,100.0,WeatherDisplay:10.37,2013-05-24 22:15:00,
2013-05-24 17:20:00,73.0,40.6,30.06,South,180,11.8,15.0,31,0.00,OVC,SCT,0.00,0.0,WeatherDisplay:10.37,2013-05-24 22:20:00,
2013-05-24 17:25:00,72.9,40.4,30.06,NNE,22,6.0,8.1,31,0.00,OVC,SCT,0.00,0.0,WeatherDisplay:10.37,2013-05-24 22:25:00,
2013-05-24 17:30:00,72.9,39.6,30.06,ESE,112,6.7,9.2,30,0.00,OVC,SCT,0.00,0.0,WeatherDisplay:10.37,2013-05-24 22:30:00,
2013-05-24 17:35:00,73.0,40.6,30.06,SSW,202,7.4,9.2,31,0.00,OVC,SCT,0.00,100.0,WeatherDisplay:10.37,2013-05-24 22:35:00,
2013-05-24 17:40:00,73.4,39.2,30.06,East,90,9.8,13.8,29,0.00,OVC,SCT,0.00,100.0,WeatherDisplay:10.37,2013-05-24 22:40:00,
2013-05-24 17:45:00,73.8,41.2,30.06,ESE,112,4.7,5.8,31,0.00,OVC,SCT,0.00,0.0,WeatherDisplay:10.37,2013-05-24 22:45:00,
2013-05-24 17:50:00,73.8,40.4,30.06,ESE,112,6.2,10.7,30,0.00,OVC,SCT,0.00,0.0,WeatherDisplay:10.37,2013-05-24 22:50:00,
2013-05-24 17:55:00,73.2,39.0,30.06,WNW,292,9.7,11.5,29,0.00,OVC,SCT,0.00,0.0,WeatherDisplay:10.37,2013-05-24 22:55:00,
2013-05-24 18:00:00,72.7,39.4,30.06,SE,135,6.2,10.4,30,0.00,OVC,SCT,0.00,0.0,WeatherDisplay:10.37,2013-05-24 23:00:00,
2013-05-24 18:05:00,72.7,40.3,30.06,SSE,158,6.0,8.7,31,0.00,OVC,SCT,0.00,0.0,WeatherDisplay:10.37,2013-05-24 23:05:00,
2013-05-24 18:10:00,72.7,39.4,30.06,SSE,158,6.2,6.9,30,0.00,BKN,SCT,0.00,0.0,WeatherDisplay:10.37,2013-05-24 23:10:00,
2013-05-24 18:15:00,72.7,40.3,30.06,SSE,158,6.4,10.7,31,0.00,BKN,SCT,0.00,0.0,WeatherDisplay:10.37,2013-05-24 23:15:00,
2013-05-24 18:20:00,72.5,39.3,30.06,ESE,112,7.1,10.4,30,0.00,BKN,SCT,0.00,0.0,WeatherDisplay:10.37,2013-05-24 23:20:00,
2013-05-24 18:25:00,72.5,40.1,30.06,ESE,112,6.0,8.1,31,0.00,BKN,SCT,0.00,0.0,WeatherDisplay:10.37,2013-05-24 23:25:00,
2013-05-24 18:30:00,72.5,40.1,30.03,ESE,112,7.6,9.2,31,0.00,BKN,SCT,0.00,0.0,WeatherDisplay:10.37,2013-05-24 23:30:00,
2013-05-24 18:35:00,72.1,39.8,30.03,SSE,158,5.4,10.4,31,0.00,BKN,SCT,0.00,0.0,WeatherDisplay:10.37,2013-05-24 23:35:00,
2013-05-24 18:40:00,72.0,39.7,30.03,ENE,68,9.0,12.7,31,0.00,BKN,SCT,0.00,0.0,WeatherDisplay:10.37,2013-05-24 23:40:00,
2013-05-24 18:45:00,71.8,39.5,30.00,ESE,112,6.4,8.1,31,0.00,BKN,SCT,0.00,0.0,WeatherDisplay:10.37,2013-05-24 23:45:00,
2013-05-24 18:50:00,71.8,39.5,30.00,ESE,112,7.1,13.8,31,0.00,BKN,SCT,0.00,0.0,WeatherDisplay:10.37,2013-05-24 23:50:00,
2013-05-24 18:56:00,71.6,39.3,30.00,South,180,6.2,8.1,31,0.00,BKN,SCT,0.00,0.0,WeatherDisplay:10.37,2013-05-24 23:56:00,
2013-05-24 19:01:00,71.6,39.3,30.00,SE,135,7.8,10.4,31,0.00,BKN,SCT,0.00,0.0,WeatherDisplay:10.37,2013-05-25 00:01:00,
2013-05-24 19:06:00,71.6,39.3,30.00,SE,135,5.9,15.0,31,0.00,BKN,SCT,0.00,0.0,WeatherDisplay:10.37,2013-05-25 00:06:00,
2013-05-24 19:11:00,71.4,40.0,30.00,East,90,6.2,8.1,32,0.00,BKN,SCT,0.00,0.0,WeatherDisplay:10.37,2013-05-25 00:11:00,
2013-05-24 19:16:00,71.2,39.9,30.00,ESE,112,6.9,12.1,32,0.00,BKN,SCT,0.00,0.0,WeatherDisplay:10.37,2013-05-25 00:16:00,
2013-05-24 19:21:00,71.4,40.0,30.00,SE,135,6.2,9.2,32,0.00,BKN,SCT,0.00,0.0,WeatherDisplay:10.37,2013-05-25 00:21:00,
2013-05-24 19:26:00,71.4,40.0,30.00,ESE,112,4.7,9.2,32,0.00,BKN,SCT,0.00,0.0,WeatherDisplay:10.37,2013-05-25 00:26:00,
2013-05-24 19:31:00,71.4,39.2,30.00,ESE,112,6.2,11.5,31,0.00,BKN,SCT,0.00,0.0,WeatherDisplay:10.37,2013-05-25 00:31:00,
2013-05-24 19:36:00,71.4,39.2,30.00,ESE,112,6.4,10.4,31,0.00,BKN,SCT,0.00,0.0,WeatherDisplay:10.37,2013-05-25 00:36:00,
2013-05-24 19:41:00,71.2,39.9,30.00,SSE,158,6.9,10.7,32,0.00,BKN,SCT,0.00,0.0,WeatherDisplay:10.37,2013-05-25 00:41:00,
2013-05-24 19:46:00,71.1,39.7,30.00,ESE,112,6.2,10.7,32,0.00,BKN,SCT,0.00,0.0,WeatherDisplay:10.37,2013-05-25 00:46:00,
2013-05-24 19:51:00,71.1,39.7,30.00,SSW,202,5.6,9.2,32,0.00,BKN,SCT,0.00,0.0,WeatherDisplay:10.37,2013-05-25 00:51:00,
2013-05-24 19:56:00,71.1,39.7,30.00,SSW,202,8.5,12.7,32,0.00,BKN,SCT,0.00,0.0,WeatherDisplay:10.37,2013-05-25 00:56:00,
2013-05-24 20:01:00,71.1,39.7,30.00,ENE,68,5.9,10.4,32,0.00,BKN,SCT,0.00,0.0,WeatherDisplay:10.37,2013-05-25 01:01:00,
2013-05-24 20:06:00,70.9,39.5,30.00,SE,135,6.0,8.1,32,0.00,BKN,SCT,0.00,0.0,WeatherDisplay:10.37,2013-05-25 01:06:00,
2013-05-24 20:11:00,70.7,39.4,30.00,ESE,112,6.9,9.2,32,0.00,BKN,SCT,0.00,0.0,WeatherDisplay:10.37,2013-05-25 01:11:00,
2013-05-24 20:17:00,70.7,39.4,30.00,SSE,158,4.9,8.1,32,0.00,BKN,SCT,0.00,0.0,WeatherDisplay:10.37,2013-05-25 01:17:00,
2013-05-24 20:22:00,70.5,39.2,30.00,ESE,112,4.5,11.5,32,0.00,BKN,SCT,0.00,0.0,WeatherDisplay:10.37,2013-05-25 01:22:00,
2013-05-24 20:27:00,70.5,39.2,30.00,ESE,112,4.0,6.9,32,0.00,BKN,SCT,0.00,0.0,WeatherDisplay:10.37,2013-05-25 01:27:00,
2013-05-24 20:32:00,70.3,39.1,30.00,ESE,112,7.1,9.2,32,0.00,BKN,SCT,0.00,0.0,WeatherDisplay:10.37,2013-05-25 01:32:00,
2013-05-24 20:37:00,70.0,38.8,30.00,SSE,158,6.2,6.9,32,0.00,BKN,SCT,0.00,0.0,WeatherDisplay:10.37,2013-05-25 01:37:00,
2013-05-24 20:42:00,70.0,38.8,30.00,SSE,158,6.7,10.4,32,0.00,BKN,SCT,0.00,0.0,WeatherDisplay:10.37,2013-05-25 01:42:00,
2013-05-24 20:47:00,69.8,38.6,30.00,NE,45,3.8,7.6,32,0.00,BKN,SCT,0.00,0.0,WeatherDisplay:10.37,2013-05-25 01:47:00,
2013-05-24 20:52:00,69.6,38.4,30.00,ESE,112,5.6,5.8,32,0.00,BKN,SCT,0.00,0.0,WeatherDisplay:10.37,2013-05-25 01:52:00,
2013-05-24 20:57:00,69.4,38.3,30.03,SSE,158,2.9,5.8,32,0.00,BKN,SCT,0.00,0.0,WeatherDisplay:10.37,2013-05-25 01:57:00,
2013-05-24 21:02:00,69.4,39.1,30.03,East,90,3.3,3.3,33,0.00,BKN,SCT,0.00,0.0,WeatherDisplay:10.37,2013-05-25 02:02:00,
2013-05-24 21:07:00,69.1,38.8,30.03,ENE,68,1.6,2.3,33,0.00,BKN,SCT,0.00,0.0,WeatherDisplay:10.37,2013-05-25 02:07:00,
2013-05-24 21:12:00,68.9,38.6,30.06,ENE,68,0.0,1.1,33,0.00,BKN,SCT,0.00,0.0,WeatherDisplay:10.37,2013-05-25 02:12:00,
2013-05-24 21:17:00,68.9,38.6,30.06,SSE,158,0.0,2.4,33,0.00,BKN,SCT,0.00,0.0,WeatherDisplay:10.37,2013-05-25 02:17:00,
2013-05-24 21:23:00,68.7,38.4,30.06,SW,225,0.0,1.1,33,0.00,BKN,SCT,0.00,0.0,WeatherDisplay:10.37,2013-05-25 02:23:00,
2013-05-24 21:28:00,68.7,38.4,30.06,SSW,202,1.4,2.9,33,0.00,BKN,SCT,0.00,0.0,WeatherDisplay:10.37,2013-05-25 02:28:00,
2013-05-24 21:33:00,68.5,39.0,30.06,ESE,112,2.9,6.0,34,0.00,BKN,SCT,0.00,0.0,WeatherDisplay:10.37,2013-05-25 02:33:00,
2013-05-24 21:38:00,68.5,39.0,30.06,South,180,3.1,4.6,34,0.00,BKN,SCT,0.00,0.0,WeatherDisplay:10.37,2013-05-25 02:38:00,
2013-05-24 21:43:00,68.5,39.0,30.09,ESE,112,4.5,5.8,34,0.00,BKN,SCT,0.00,0.0,WeatherDisplay:10.37,2013-05-25 02:43:00,
2013-05-24 21:48:00,68.5,39.0,30.09,SSE,158,3.3,4.6,34,0.00,BKN,SCT,0.00,0.0,WeatherDisplay:10.37,2013-05-25 02:48:00,
2013-05-24 21:53:00,68.5,39.0,30.09,ENE,68,4.0,4.6,34,0.00,BKN,SCT,0.00,0.0,WeatherDisplay:10.37,2013-05-25 02:53:00,
2013-05-24 21:58:00,68.4,38.9,30.09,ESE,112,3.3,3.5,34,0.00,BKN,SCT,0.00,0.0,WeatherDisplay:10.37,2013-05-25 02:58:00,
2013-05-24 22:03:00,68.4,38.9,30.09,SE,135,3.3,5.8,34,0.00,BKN,SCT,0.00,0.0,WeatherDisplay:10.37,2013-05-25 03:03:00,
2013-05-24 22:08:00,68.2,38.7,30.09,SSE,158,3.8,4.9,34,0.00,BKN,SCT,0.00,0.0,WeatherDisplay:10.37,2013-05-25 03:08:00,
2013-05-24 22:13:00,68.2,38.7,30.09,East,90,4.0,5.4,34,0.00,BKN,SCT,0.00,0.0,WeatherDisplay:10.37,2013-05-25 03:13:00,
2013-05-24 22:18:00,68.0,38.6,30.09,ESE,112,3.8,3.8,34,0.00,BKN,SCT,0.00,0.0,WeatherDisplay:10.37,2013-05-25 03:18:00,
2013-05-24 22:23:00,68.0,38.6,30.09,ESE,112,4.5,5.8,34,0.00,BKN,SCT,0.00,0.0,WeatherDisplay:10.37,2013-05-25 03:23:00,
2013-05-24 22:28:00,67.8,39.2,30.09,ESE,112,4.0,8.1,35,0.00,BKN,SCT,0.00,0.0,WeatherDisplay:10.37,2013-05-25 03:28:00,
2013-05-24 22:33:00,67.8,39.2,30.09,ESE,112,4.9,5.9,35,0.00,BKN,SCT,0.00,0.0,WeatherDisplay:10.37,2013-05-25 03:33:00,
2013-05-24 22:38:00,67.6,39.0,30.09,ESE,112,4.7,9.0,35,0.00,BKN,SCT,0.00,0.0,WeatherDisplay:10.37,2013-05-25 03:38:00,
2013-05-24 22:43:00,67.5,38.8,30.09,ENE,68,3.8,4.7,35,0.00,BKN,SCT,0.00,0.0,WeatherDisplay:10.37,2013-05-25 03:43:00,
2013-05-24 22:49:00,67.3,38.7,30.09,SE,135,3.1,5.8,35,0.00,BKN,SCT,0.00,0.0,WeatherDisplay:10.37,2013-05-25 03:49:00,
2013-05-24 22:54:00,67.3,39.4,30.09,ESE,112,4.5,5.8,36,0.00,BKN,SCT,0.00,0.0,WeatherDisplay:10.37,2013-05-25 03:54:00,
2013-05-24 22:59:00,67.1,39.2,30.09,ESE,112,4.9,9.2,36,0.00,BKN,SCT,0.00,0.0,WeatherDisplay:10.37,2013-05-25 03:59:00,
2013-05-24 23:01:00,67.1,39.2,30.09,ESE,112,4.0,8.5,36,0.00,BKN,SCT,0.00,0.0,WeatherDisplay:10.37,2013-05-25 04:01:00,
2013-05-24 23:02:00,67.1,39.2,30.09,ESE,112,6.2,9.2,36,0.00,BKN,SCT,0.00,0.0,WeatherDisplay:10.37,2013-05-25 04:02:00,
2013-05-24 23:07:00,67.1,38.5,30.09,SSW,202,4.3,9.7,35,0.00,BKN,SCT,0.00,0.0,WeatherDisplay:10.37,2013-05-25 04:07:00,
2013-05-24 23:12:00,66.9,39.1,30.09,SE,135,3.8,6.9,36,0.00,BKN,SCT,0.00,0.0,WeatherDisplay:10.37,2013-05-25 04:12:00,
2013-05-24 23:17:00,66.7,38.9,30.09,ESE,112,6.0,6.9,36,0.00,BKN,SCT,0.00,0.0,WeatherDisplay:10.37,2013-05-25 04:17:00,
2013-05-24 23:22:00,66.7,38.9,30.09,ESE,112,5.6,9.7,36,0.00,BKN,SCT,0.00,0.0,WeatherDisplay:10.37,2013-05-25 04:22:00,
2013-05-24 23:27:00,66.6,38.8,30.09,East,90,4.9,6.9,36,0.00,BKN,SCT,0.00,0.0,WeatherDisplay:10.37,2013-05-25 04:27:00,
2013-05-24 23:33:00,66.6,38.8,30.09,ESE,112,5.6,6.9,36,0.00,BKN,SCT,0.00,0.0,WeatherDisplay:10.37,2013-05-25 04:33:00,
2013-05-24 23:38:00,66.6,38.8,30.09,ESE,112,4.3,6.0,36,0.00,BKN,SCT,0.00,0.0,WeatherDisplay:10.37,2013-05-25 04:38:00,
2013-05-24 23:43:00,66.4,38.6,30.09,SE,135,5.9,5.9,36,0.00,BKN,SCT,0.00,0.0,WeatherDisplay:10.37,2013-05-25 04:43:00,
2013-05-24 23:48:00,66.2,37.7,30.09,ESE,112,4.3,6.9,35,0.00,BKN,SCT,0.00,0.0,WeatherDisplay:10.37,2013-05-25 04:48:00,
2013-05-24 23:53:00,66.0,38.3,30.09,East,90,5.9,8.1,36,0.00,BKN,SCT,0.00,0.0,WeatherDisplay:10.37,2013-05-25 04:53:00,
2013-05-24 23:58:00,65.8,38.1,30.09,ESE,112,4.7,6.9,36,0.00,BKN,SCT,0.00,0.0,WeatherDisplay:10.37,2013-05-25 04:58:00,